createdAt,value
2023-03-04T00:00:16.590Z,2.14
2023-03-04T00:01:16.596Z,2.10
2023-03-04T00:02:16.524Z,2.06
2023-03-04T00:03:16.534Z,2.04
2023-03-04T00:04:16.470Z,2.06
2023-03-04T00:05:16.391Z,2.08
2023-03-04T00:06:16.359Z,2.07
2023-03-04T00:07:16.371Z,2.04
2023-03-04T00:08:16.272Z,1.99
2023-03-04T00:09:16.230Z,1.94
2023-03-04T00:10:16.191Z,2.04
2023-03-04T00:11:16.152Z,1.88
2023-03-04T00:12:16.148Z,1.85
2023-03-04T00:13:16.150Z,1.92
2023-03-04T00:14:16.052Z,1.94
2023-03-04T00:15:16.012Z,1.92
2023-03-04T00:16:16.018Z,1.89
2023-03-04T00:17:15.927Z,1.94
2023-03-04T00:18:15.877Z,1.94
2023-03-04T00:19:15.899Z,2.04
2023-03-04T00:20:15.811Z,2.10
2023-03-04T00:21:15.772Z,2.14
2023-03-04T00:22:15.741Z,2.26
2023-03-04T00:23:15.697Z,2.26
2023-03-04T00:24:15.662Z,2.38
2023-03-04T00:25:15.673Z,2.44
2023-03-04T00:26:15.581Z,2.53
2023-03-04T00:27:15.541Z,2.47
2023-03-04T00:28:15.501Z,2.57
2023-03-04T00:29:15.461Z,2.79
2023-03-04T00:30:15.489Z,2.65
2023-03-04T00:31:15.426Z,2.82
2023-03-04T00:32:15.358Z,2.83
2023-03-04T00:33:15.317Z,2.87
2023-03-04T00:34:15.272Z,2.92
2023-03-04T00:35:15.228Z,3.01
2023-03-04T00:36:15.244Z,3.00
2023-03-04T00:37:15.150Z,3.08
2023-03-04T00:38:15.116Z,3.04
2023-03-04T00:39:15.066Z,3.18
2023-03-04T00:40:15.042Z,3.16
2023-03-04T00:41:15.004Z,3.21
2023-03-04T00:42:15.029Z,3.19
2023-03-04T00:43:14.924Z,3.16
2023-03-04T00:44:14.894Z,3.32
2023-03-04T00:45:14.842Z,3.19
2023-03-04T00:46:14.840Z,3.32
2023-03-04T00:47:14.772Z,3.40
2023-03-04T00:48:14.786Z,3.42
2023-03-04T00:49:14.703Z,3.40
2023-03-04T00:50:14.650Z,3.36
2023-03-04T00:51:14.624Z,3.41
2023-03-04T00:52:14.578Z,3.42
2023-03-04T00:53:14.539Z,3.51
2023-03-04T00:54:14.554Z,3.47
2023-03-04T00:55:14.466Z,3.48
2023-03-04T00:56:14.499Z,3.58
2023-03-04T00:57:14.393Z,3.55
2023-03-04T00:58:14.350Z,3.60
2023-03-04T00:59:14.322Z,3.62
2023-03-04T01:00:14.272Z,3.47
2023-03-04T01:01:14.970Z,3.62
2023-03-04T01:02:14.281Z,3.68
2023-03-04T01:03:14.166Z,3.62
2023-03-04T01:04:14.122Z,3.59
2023-03-04T01:05:14.078Z,3.62
2023-03-04T01:06:14.047Z,3.65
2023-03-04T01:07:14.004Z,3.59
2023-03-04T01:08:14.025Z,3.59
2023-03-04T01:09:13.930Z,3.62
2023-03-04T01:10:13.889Z,3.63
2023-03-04T01:11:13.855Z,3.73
2023-03-04T01:12:13.832Z,3.65
2023-03-04T01:13:13.785Z,3.66
2023-03-04T01:14:13.804Z,3.73
2023-03-04T01:15:13.708Z,3.73
2023-03-04T01:16:13.727Z,3.70
2023-03-04T01:17:13.628Z,3.77
2023-03-04T01:18:13.717Z,3.83
2023-03-04T01:19:13.545Z,3.91
2023-03-04T01:20:13.513Z,3.83
2023-03-04T01:21:13.471Z,3.80
2023-03-04T01:22:13.433Z,3.92
2023-03-04T01:23:13.399Z,3.87
2023-03-04T01:24:13.410Z,3.91
2023-03-04T01:25:13.324Z,3.84
2023-03-04T01:26:13.288Z,3.94
2023-03-04T01:27:13.259Z,3.87
2023-03-04T01:28:13.213Z,3.92
2023-03-04T01:29:13.177Z,3.94
2023-03-04T01:30:13.188Z,3.91
2023-03-04T01:31:13.126Z,3.88
2023-03-04T01:32:13.086Z,3.91
2023-03-04T01:33:13.022Z,4.02
2023-03-04T01:34:13.011Z,3.98
2023-03-04T01:35:12.945Z,3.99
2023-03-04T01:36:12.960Z,4.06
2023-03-04T01:37:12.882Z,4.02
2023-03-04T01:38:12.862Z,4.06
2023-03-04T01:39:12.802Z,3.99
2023-03-04T01:40:12.818Z,4.02
2023-03-04T01:41:12.723Z,3.99
2023-03-04T01:42:12.681Z,4.01
2023-03-04T01:43:12.652Z,4.04
2023-03-04T01:44:12.609Z,4.04
2023-03-04T01:45:12.734Z,4.10
2023-03-04T01:46:12.592Z,4.13
2023-03-04T01:47:12.498Z,4.08
2023-03-04T01:48:12.463Z,4.17
2023-03-04T01:49:12.435Z,4.22
2023-03-04T01:50:12.395Z,4.19
2023-03-04T01:51:12.414Z,4.24
2023-03-04T01:52:12.304Z,4.32
2023-03-04T01:53:12.270Z,4.35
2023-03-04T01:54:12.240Z,4.30
2023-03-04T01:55:12.197Z,4.34
2023-03-04T01:56:12.161Z,4.41
2023-03-04T01:57:12.185Z,4.41
2023-03-04T01:58:12.142Z,4.37
2023-03-04T01:59:12.056Z,4.34
2023-03-04T02:00:12.009Z,4.37
2023-03-04T02:01:12.001Z,4.37
2023-03-04T02:02:11.934Z,4.45
2023-03-04T02:03:11.949Z,4.42
2023-03-04T02:04:11.880Z,4.44
2023-03-04T02:05:11.828Z,4.44
2023-03-04T02:06:11.792Z,4.48
2023-03-04T02:07:11.749Z,4.44
2023-03-04T02:08:11.717Z,4.48
2023-03-04T02:09:11.740Z,4.56
2023-03-04T02:10:11.646Z,4.53
2023-03-04T02:11:11.600Z,4.52
2023-03-04T02:12:11.566Z,4.53
2023-03-04T02:13:11.518Z,4.55
2023-03-04T02:14:11.484Z,4.55
2023-03-04T02:15:11.505Z,4.55
2023-03-04T02:16:11.465Z,4.58
2023-03-04T02:17:11.378Z,4.53
2023-03-04T02:18:11.335Z,4.58
2023-03-04T02:19:11.379Z,4.58
2023-03-04T02:20:11.266Z,4.53
2023-03-04T02:21:11.233Z,4.59
2023-03-04T02:22:11.201Z,4.60
2023-03-04T02:23:11.154Z,4.62
2023-03-04T02:24:11.111Z,4.63
2023-03-04T02:25:11.144Z,4.60
2023-03-04T02:26:11.052Z,4.70
2023-03-04T02:27:11.003Z,4.62
2023-03-04T02:28:10.967Z,4.67
2023-03-04T02:29:10.923Z,4.62
2023-03-04T02:30:10.890Z,4.68
2023-03-04T02:31:10.937Z,4.70
2023-03-04T02:32:10.882Z,4.68
2023-03-04T02:33:10.820Z,4.70
2023-03-04T02:34:10.739Z,4.78
2023-03-04T02:35:10.706Z,4.70
2023-03-04T02:36:10.720Z,4.84
2023-03-04T02:37:10.647Z,4.68
2023-03-04T02:38:10.588Z,4.75
2023-03-04T02:39:10.563Z,4.82
2023-03-04T02:40:10.523Z,4.82
2023-03-04T02:41:10.485Z,4.77
2023-03-04T02:42:10.507Z,4.84
2023-03-04T02:43:10.409Z,4.75
2023-03-04T02:44:10.368Z,4.73
2023-03-04T02:45:10.349Z,4.77
2023-03-04T02:46:10.356Z,4.84
2023-03-04T02:47:10.261Z,4.78
2023-03-04T02:48:10.288Z,4.93
2023-03-04T02:49:10.191Z,4.87
2023-03-04T02:50:10.147Z,4.92
2023-03-04T02:51:10.111Z,4.82
2023-03-04T02:52:10.072Z,4.84
2023-03-04T02:53:10.048Z,4.89
2023-03-04T02:54:11.894Z,4.87
2023-03-04T02:55:10.005Z,4.89
2023-03-04T02:56:09.937Z,4.89
2023-03-04T02:57:09.889Z,4.87
2023-03-04T02:58:09.919Z,4.92
2023-03-04T02:59:09.824Z,4.87
2023-03-04T03:00:09.846Z,4.87
2023-03-04T03:01:09.738Z,4.90
2023-03-04T03:02:09.759Z,4.94
2023-03-04T03:03:09.706Z,4.92
2023-03-04T03:04:09.635Z,4.96
2023-03-04T03:05:09.705Z,4.96
2023-03-04T03:06:09.608Z,4.97
2023-03-04T03:07:09.540Z,4.93
2023-03-04T03:08:09.478Z,4.96
2023-03-04T03:09:09.462Z,4.90
2023-03-04T03:10:09.418Z,4.94
2023-03-04T03:11:09.380Z,4.99
2023-03-04T03:12:09.410Z,5.08
2023-03-04T03:13:09.299Z,5.00
2023-03-04T03:14:09.289Z,4.92
2023-03-04T03:15:09.214Z,4.94
2023-03-04T03:16:09.226Z,5.02
2023-03-04T03:17:09.147Z,4.94
2023-03-04T03:18:09.190Z,5.08
2023-03-04T03:19:09.072Z,5.04
2023-03-04T03:20:09.037Z,5.04
2023-03-04T03:21:09.003Z,5.04
2023-03-04T03:22:09.086Z,5.02
2023-03-04T03:23:08.931Z,5.02
2023-03-04T03:24:08.943Z,5.07
2023-03-04T03:25:08.852Z,5.10
2023-03-04T03:26:08.809Z,5.07
2023-03-04T03:27:08.778Z,5.08
2023-03-04T03:28:08.745Z,5.07
2023-03-04T03:29:17.516Z,5.12
2023-03-04T03:30:08.729Z,5.10
2023-03-04T03:31:08.686Z,5.08
2023-03-04T03:32:08.645Z,5.21
2023-03-04T03:33:08.561Z,5.21
2023-03-04T03:34:08.537Z,5.14
2023-03-04T03:35:08.529Z,5.08
2023-03-04T03:36:09.436Z,5.14
2023-03-04T03:37:08.401Z,5.11
2023-03-04T03:38:08.392Z,5.15
2023-03-04T03:39:08.337Z,5.21
2023-03-04T03:40:08.360Z,5.08
2023-03-04T03:41:08.305Z,5.15
2023-03-04T03:42:08.212Z,5.11
2023-03-04T03:43:08.184Z,5.14
2023-03-04T03:44:08.153Z,5.17
2023-03-04T03:45:08.114Z,5.10
2023-03-04T03:46:08.232Z,5.18
2023-03-04T03:47:08.044Z,5.20
2023-03-04T03:48:08.004Z,5.18
2023-03-04T03:49:08.040Z,5.15
2023-03-04T03:50:07.934Z,5.18
2023-03-04T03:51:07.903Z,5.17
2023-03-04T03:52:07.940Z,5.14
2023-03-04T03:53:07.827Z,5.15
2023-03-04T03:54:07.782Z,5.17
2023-03-04T03:55:07.816Z,5.21
2023-03-04T03:56:07.715Z,5.23
2023-03-04T03:57:07.726Z,5.17
2023-03-04T03:58:07.656Z,5.18
2023-03-04T03:59:07.653Z,5.20
2023-03-04T04:00:07.575Z,5.17
2023-03-04T04:01:07.577Z,5.20
2023-03-04T04:02:07.740Z,5.21
2023-03-04T04:03:07.471Z,5.25
2023-03-04T04:04:07.413Z,5.20
2023-03-04T04:05:07.385Z,5.29
2023-03-04T04:06:07.343Z,5.30
2023-03-04T04:07:07.335Z,5.32
2023-03-04T04:08:07.327Z,5.30
2023-03-04T04:09:07.242Z,5.23
2023-03-04T04:10:07.207Z,5.28
2023-03-04T04:11:07.159Z,5.26
2023-03-04T04:12:07.126Z,5.29
2023-03-04T04:13:07.090Z,5.29
2023-03-04T04:14:07.125Z,5.30
2023-03-04T04:15:07.042Z,5.32
2023-03-04T04:16:07.054Z,5.26
2023-03-04T04:17:06.934Z,5.33
2023-03-04T04:18:06.925Z,5.33
2023-03-04T04:19:06.925Z,5.36
2023-03-04T04:20:06.829Z,5.36
2023-03-04T04:21:06.823Z,5.35
2023-03-04T04:22:06.757Z,5.28
2023-03-04T04:23:06.728Z,5.29
2023-03-04T04:24:06.705Z,5.30
2023-03-04T04:25:06.757Z,5.39
2023-03-04T04:26:06.608Z,5.36
2023-03-04T04:27:06.570Z,5.38
2023-03-04T04:28:06.535Z,5.38
2023-03-04T04:29:06.539Z,5.44
2023-03-04T04:30:06.470Z,5.41
2023-03-04T04:31:06.514Z,5.47
2023-03-04T04:32:06.408Z,5.43
2023-03-04T04:33:06.356Z,5.46
2023-03-04T04:34:06.338Z,5.44
2023-03-04T04:35:07.383Z,5.44
2023-03-04T04:36:06.305Z,5.43
2023-03-04T04:37:06.210Z,5.39
2023-03-04T04:38:06.164Z,5.46
2023-03-04T04:39:06.140Z,5.39
2023-03-04T04:40:06.112Z,5.47
2023-03-04T04:41:06.074Z,5.54
2023-03-04T04:42:06.090Z,5.47
2023-03-04T04:43:05.980Z,5.50
2023-03-04T04:44:05.962Z,5.50
2023-03-04T04:45:05.914Z,5.51
2023-03-04T04:46:07.435Z,5.46
2023-03-04T04:47:05.833Z,5.50
2023-03-04T04:48:05.872Z,5.51
2023-03-04T04:49:05.763Z,5.51
2023-03-04T04:50:05.750Z,5.53
2023-03-04T04:51:05.694Z,5.53
2023-03-04T04:52:05.654Z,5.53
2023-03-04T04:53:05.662Z,5.50
2023-03-04T04:54:05.646Z,5.50
2023-03-04T04:55:05.559Z,5.56
2023-03-04T04:56:05.511Z,5.51
2023-03-04T04:57:05.470Z,5.54
2023-03-04T04:58:05.440Z,5.51
2023-03-04T04:59:05.424Z,5.54
2023-03-04T05:00:05.417Z,5.54
2023-03-04T05:01:05.340Z,5.51
2023-03-04T05:02:05.293Z,5.54
2023-03-04T05:03:05.322Z,5.61
2023-03-04T05:04:05.216Z,5.59
2023-03-04T05:05:05.186Z,5.59
2023-03-04T05:06:05.240Z,5.53
2023-03-04T05:07:05.218Z,5.65
2023-03-04T05:08:05.915Z,5.65
2023-03-04T05:09:06.098Z,5.69
2023-03-04T05:10:05.009Z,5.64
2023-03-04T05:11:05.018Z,5.61
2023-03-04T05:12:04.933Z,5.61
2023-03-04T05:13:04.888Z,5.62
2023-03-04T05:14:04.869Z,5.62
2023-03-04T05:15:04.828Z,5.66
2023-03-04T05:16:04.829Z,5.69
2023-03-04T05:17:04.811Z,5.68
2023-03-04T05:18:04.710Z,5.79
2023-03-04T05:19:04.683Z,5.68
2023-03-04T05:20:04.636Z,5.80
2023-03-04T05:21:04.606Z,5.75
2023-03-04T05:22:04.564Z,5.75
2023-03-04T05:23:04.584Z,5.80
2023-03-04T05:24:04.558Z,5.80
2023-03-04T05:25:04.477Z,5.79
2023-03-04T05:26:04.467Z,5.76
2023-03-04T05:27:04.378Z,5.83
2023-03-04T05:28:04.355Z,5.89
2023-03-04T05:29:04.372Z,5.84
2023-03-04T05:30:04.273Z,5.86
2023-03-04T05:31:04.252Z,5.82
2023-03-04T05:32:04.226Z,5.83
2023-03-04T05:33:04.172Z,5.84
2023-03-04T05:34:04.119Z,5.93
2023-03-04T05:35:04.138Z,5.91
2023-03-04T05:36:04.053Z,5.94
2023-03-04T05:37:04.022Z,5.99
2023-03-04T05:38:04.038Z,5.94
2023-03-04T05:39:03.948Z,5.93
2023-03-04T05:40:03.913Z,5.94
2023-03-04T05:41:03.934Z,5.97
2023-03-04T05:42:03.836Z,5.93
2023-03-04T05:43:03.801Z,5.94
2023-03-04T05:44:03.754Z,5.99
2023-03-04T05:45:03.744Z,5.99
2023-03-04T05:46:03.717Z,5.99
2023-03-04T05:47:03.712Z,5.99
2023-03-04T05:48:03.620Z,5.94
2023-03-04T05:49:03.573Z,5.98
2023-03-04T05:50:03.540Z,5.94
2023-03-04T05:51:03.510Z,5.98
2023-03-04T05:52:03.509Z,6.01
2023-03-04T05:53:03.498Z,5.93
2023-03-04T05:54:03.405Z,5.91
2023-03-04T05:55:03.360Z,5.94
2023-03-04T05:56:03.330Z,5.94
2023-03-04T05:57:03.307Z,5.94
2023-03-04T05:58:03.250Z,5.98
2023-03-04T05:59:03.328Z,5.98
2023-03-04T06:00:03.184Z,5.91
2023-03-04T06:01:03.142Z,5.83
2023-03-04T06:02:03.142Z,5.90
2023-03-04T06:03:03.171Z,5.98
2023-03-04T06:04:03.165Z,5.94
2023-03-04T06:05:03.055Z,5.94
2023-03-04T06:06:03.102Z,5.91
2023-03-04T06:07:02.918Z,5.94
2023-03-04T06:08:02.889Z,5.97
2023-03-04T06:09:02.846Z,5.97
2023-03-04T06:10:02.817Z,5.93
2023-03-04T06:11:02.822Z,5.99
2023-03-04T06:12:02.743Z,6.04
2023-03-04T06:13:02.703Z,5.94
2023-03-04T06:14:02.697Z,5.89
2023-03-04T06:15:02.626Z,5.98
2023-03-04T06:16:02.667Z,6.04
2023-03-04T06:17:02.560Z,6.02
2023-03-04T06:18:02.527Z,5.97
2023-03-04T06:19:02.484Z,5.98
2023-03-04T06:20:02.607Z,6.04
2023-03-04T06:21:02.420Z,6.05
2023-03-04T06:22:02.438Z,5.91
2023-03-04T06:23:02.343Z,6.07
2023-03-04T06:24:02.321Z,5.99
2023-03-04T06:25:02.268Z,6.02
2023-03-04T06:26:02.235Z,6.09
2023-03-04T06:27:02.216Z,6.08
2023-03-04T06:28:02.216Z,6.01
2023-03-04T06:29:02.128Z,6.11
2023-03-04T06:30:02.101Z,6.09
2023-03-04T06:31:02.198Z,6.07
2023-03-04T06:32:02.060Z,6.04
2023-03-04T06:33:01.971Z,6.05
2023-03-04T06:34:02.003Z,6.11
2023-03-04T06:35:01.917Z,6.12
2023-03-04T06:36:01.914Z,6.08
2023-03-04T06:37:01.834Z,6.20
2023-03-04T06:38:01.801Z,6.22
2023-03-04T06:39:01.843Z,6.24
2023-03-04T06:40:01.780Z,6.14
2023-03-04T06:41:01.805Z,6.26
2023-03-04T06:42:01.661Z,6.20
2023-03-04T06:43:01.608Z,6.22
2023-03-04T06:44:01.584Z,6.27
2023-03-04T06:45:01.646Z,6.28
2023-03-04T06:46:01.564Z,6.28
2023-03-04T06:47:01.506Z,6.33
2023-03-04T06:48:01.430Z,6.31
2023-03-04T06:49:01.389Z,6.38
2023-03-04T06:50:01.397Z,6.39
2023-03-04T06:51:01.322Z,6.36
2023-03-04T06:52:01.599Z,6.33
2023-03-04T06:53:01.261Z,6.33
2023-03-04T06:54:01.231Z,6.35
2023-03-04T06:55:01.180Z,6.33
2023-03-04T06:56:02.024Z,6.38
2023-03-04T06:57:01.121Z,6.38
2023-03-04T06:58:01.140Z,6.42
2023-03-04T06:59:01.064Z,6.46
2023-03-04T07:00:01.002Z,6.42
2023-03-04T07:01:00.994Z,6.51
2023-03-04T07:02:00.932Z,6.52
2023-03-04T07:03:00.991Z,6.49
2023-03-04T07:04:00.928Z,6.62
2023-03-04T07:05:00.817Z,6.57
2023-03-04T07:06:00.811Z,6.60
2023-03-04T07:07:00.766Z,6.67
2023-03-04T07:08:00.710Z,6.59
2023-03-04T07:09:00.676Z,6.56
2023-03-04T07:10:00.765Z,6.60
2023-03-04T07:11:00.613Z,6.63
2023-03-04T07:12:00.571Z,6.66
2023-03-04T07:13:00.546Z,6.67
2023-03-04T07:14:00.511Z,6.66
2023-03-04T07:15:00.472Z,6.75
2023-03-04T07:16:00.540Z,6.79
2023-03-04T07:17:00.394Z,6.77
2023-03-04T07:18:00.379Z,6.66
2023-03-04T07:19:00.328Z,6.69
2023-03-04T07:20:00.291Z,6.62
2023-03-04T07:21:00.315Z,6.63
2023-03-04T07:22:00.213Z,6.57
2023-03-04T07:23:00.187Z,6.59
2023-03-04T07:24:00.145Z,6.60
2023-03-04T07:25:00.140Z,6.67
2023-03-04T07:26:00.109Z,6.62
2023-03-04T07:27:00.120Z,6.63
2023-03-04T07:28:00.921Z,6.63
2023-03-04T07:28:59.973Z,6.62
2023-03-04T07:29:59.933Z,6.56
2023-03-04T07:30:59.898Z,6.57
2023-03-04T07:31:59.919Z,6.62
2023-03-04T07:32:59.906Z,6.54
2023-03-04T07:33:59.789Z,6.46
2023-03-04T07:34:59.763Z,6.49
2023-03-04T07:35:59.717Z,6.56
2023-03-04T07:36:59.693Z,6.59
2023-03-04T07:37:59.641Z,6.51
2023-03-04T07:38:59.709Z,6.51
2023-03-04T07:39:59.666Z,6.52
2023-03-04T07:40:59.540Z,6.49
2023-03-04T07:41:59.514Z,6.67
2023-03-04T07:42:59.464Z,6.63
2023-03-04T07:43:59.492Z,6.62
2023-03-04T07:44:59.450Z,6.60
2023-03-04T07:45:59.413Z,6.62
2023-03-04T07:46:59.332Z,6.51
2023-03-04T07:47:59.290Z,6.48
2023-03-04T07:48:59.278Z,6.52
2023-03-04T07:49:59.271Z,6.64
2023-03-04T07:50:59.182Z,6.59
2023-03-04T07:51:59.140Z,6.66
2023-03-04T07:52:59.113Z,6.63
2023-03-04T07:53:59.092Z,6.60
2023-03-04T07:54:59.054Z,6.64
2023-03-04T07:56:00.998Z,6.67
2023-03-04T07:56:58.964Z,6.69
2023-03-04T07:57:58.939Z,6.69
2023-03-04T07:58:58.922Z,6.60
2023-03-04T07:59:58.901Z,6.70
2023-03-04T08:00:58.821Z,6.79
2023-03-04T08:01:58.845Z,6.84
2023-03-04T08:02:58.758Z,6.89
2023-03-04T08:03:58.777Z,6.89
2023-03-04T08:04:58.684Z,6.93
2023-03-04T08:05:58.652Z,6.93
2023-03-04T08:06:58.617Z,6.89
2023-03-04T08:07:58.640Z,6.88
2023-03-04T08:08:58.547Z,6.85
2023-03-04T08:10:02.432Z,6.99
2023-03-04T08:10:58.474Z,6.89
2023-03-04T08:11:58.433Z,6.89
2023-03-04T08:12:58.401Z,6.92
2023-03-04T08:13:58.624Z,6.93
2023-03-04T08:14:58.366Z,7.07
2023-03-04T08:15:58.334Z,7.07
2023-03-04T08:16:58.281Z,7.14
2023-03-04T08:17:58.226Z,7.15
2023-03-04T08:18:58.190Z,7.11
2023-03-04T08:19:58.356Z,7.17
2023-03-04T08:20:58.132Z,7.17
2023-03-04T08:21:58.077Z,7.25
2023-03-04T08:22:58.043Z,7.29
2023-03-04T08:23:58.026Z,7.36
2023-03-04T08:24:58.015Z,7.28
2023-03-04T08:25:57.991Z,7.45
2023-03-04T08:26:57.909Z,7.48
2023-03-04T08:27:57.928Z,7.42
2023-03-04T08:28:58.566Z,7.43
2023-03-04T08:29:57.801Z,7.39
2023-03-04T08:30:57.813Z,7.39
2023-03-04T08:31:58.017Z,7.29
2023-03-04T08:32:57.826Z,7.29
2023-03-04T08:33:57.657Z,7.25
2023-03-04T08:34:57.637Z,7.35
2023-03-04T08:35:57.610Z,7.39
2023-03-04T08:36:57.566Z,7.39
2023-03-04T08:37:57.560Z,7.50
2023-03-04T08:38:57.503Z,7.35
2023-03-04T08:39:57.464Z,7.35
2023-03-04T08:40:57.414Z,7.42
2023-03-04T08:41:57.388Z,7.47
2023-03-04T08:42:57.359Z,7.50
2023-03-04T08:43:57.365Z,7.50
2023-03-04T08:44:57.276Z,7.48
2023-03-04T08:45:58.004Z,7.42
2023-03-04T08:46:57.206Z,7.45
2023-03-04T08:47:57.193Z,7.38
2023-03-04T08:48:57.144Z,7.33
2023-03-04T08:49:57.174Z,7.31
2023-03-04T08:50:57.069Z,7.28
2023-03-04T08:51:57.059Z,7.32
2023-03-04T08:52:57.051Z,7.32
2023-03-04T08:53:56.961Z,7.43
2023-03-04T08:54:56.926Z,7.42
2023-03-04T08:55:56.883Z,7.48
2023-03-04T08:56:56.856Z,7.51
2023-03-04T08:57:56.885Z,7.33
2023-03-04T08:58:56.782Z,7.35
2023-03-04T08:59:56.755Z,7.36
2023-03-04T09:00:56.718Z,7.38
2023-03-04T09:01:56.715Z,7.40
2023-03-04T09:02:56.641Z,7.45
2023-03-04T09:03:56.818Z,7.47
2023-03-04T09:04:56.583Z,7.43
2023-03-04T09:05:56.559Z,7.43
2023-03-04T09:06:56.505Z,7.42
2023-03-04T09:07:56.462Z,7.43
2023-03-04T09:08:56.489Z,7.40
2023-03-04T09:10:01.954Z,7.45
2023-03-04T09:10:56.369Z,7.45
2023-03-04T09:11:56.377Z,7.45
2023-03-04T09:12:56.326Z,7.45
2023-03-04T09:13:56.281Z,7.48
2023-03-04T09:15:10.280Z,7.51
2023-03-04T09:15:56.199Z,7.47
2023-03-04T09:16:56.206Z,7.48
2023-03-04T09:17:56.119Z,7.60
2023-03-04T09:18:56.099Z,7.56
2023-03-04T09:19:56.854Z,7.56
2023-03-04T09:20:56.081Z,7.56
2023-03-04T09:21:55.990Z,7.61
2023-03-04T09:22:55.955Z,7.67
2023-03-04T09:23:55.904Z,7.69
2023-03-04T09:24:55.880Z,7.76
2023-03-04T09:25:55.849Z,7.80
2023-03-04T09:26:56.037Z,7.77
2023-03-04T09:27:55.772Z,7.80
2023-03-04T09:28:55.737Z,7.91
2023-03-04T09:30:05.072Z,7.98
2023-03-04T09:30:55.666Z,8.05
2023-03-04T09:31:55.708Z,8.00
2023-03-04T09:32:55.660Z,8.10
2023-03-04T09:33:55.571Z,8.10
2023-03-04T09:34:55.520Z,8.18
2023-03-04T09:35:55.531Z,8.08
2023-03-04T09:36:55.486Z,8.12
2023-03-04T09:37:55.424Z,8.12
2023-03-04T09:38:55.443Z,8.08
2023-03-04T09:39:55.354Z,8.13
2023-03-04T09:40:55.317Z,8.23
2023-03-04T09:41:55.287Z,8.20
2023-03-04T09:42:55.312Z,8.24
2023-03-04T09:43:55.261Z,8.30
2023-03-04T09:44:55.970Z,8.34
2023-03-04T09:45:55.156Z,8.20
2023-03-04T09:46:55.151Z,8.19
2023-03-04T09:47:55.075Z,8.24
2023-03-04T09:48:55.038Z,8.26
2023-03-04T09:49:55.011Z,8.20
2023-03-04T09:50:55.026Z,8.30
2023-03-04T09:51:54.942Z,8.34
2023-03-04T09:52:54.906Z,8.28
2023-03-04T09:53:54.916Z,8.44
2023-03-04T09:54:54.840Z,8.53
2023-03-04T09:55:54.802Z,8.60
2023-03-04T09:56:54.819Z,8.61
2023-03-04T09:57:54.743Z,8.55
2023-03-04T09:58:54.699Z,8.38
2023-03-04T09:59:54.678Z,8.46
2023-03-04T10:00:54.708Z,8.31
2023-03-04T10:01:54.605Z,8.33
2023-03-04T10:02:54.624Z,8.34
2023-03-04T10:03:54.577Z,8.26
2023-03-04T10:04:54.519Z,8.33
2023-03-04T10:05:54.472Z,8.19
2023-03-04T10:06:55.171Z,8.05
2023-03-04T10:07:54.437Z,8.08
2023-03-04T10:08:54.369Z,8.15
2023-03-04T10:09:54.317Z,8.09
2023-03-04T10:10:54.332Z,8.10
2023-03-04T10:11:54.248Z,8.05
2023-03-04T10:12:54.209Z,8.18
2023-03-04T10:13:54.243Z,8.16
2023-03-04T10:14:54.148Z,8.08
2023-03-04T10:15:54.151Z,8.08
2023-03-04T10:16:54.132Z,8.13
2023-03-04T10:17:54.637Z,8.13
2023-03-04T10:18:54.012Z,8.09
2023-03-04T10:19:53.974Z,7.98
2023-03-04T10:20:58.045Z,8.01
2023-03-04T10:21:53.956Z,8.01
2023-03-04T10:22:53.871Z,7.97
2023-03-04T10:23:53.848Z,7.90
2023-03-04T10:24:53.801Z,7.97
2023-03-04T10:25:53.772Z,7.80
2023-03-04T10:26:53.788Z,7.80
2023-03-04T10:27:53.755Z,7.88
2023-03-04T10:28:53.670Z,7.87
2023-03-04T10:29:53.629Z,8.00
2023-03-04T10:30:53.583Z,7.97
2023-03-04T10:31:53.627Z,7.94
2023-03-04T10:32:53.515Z,7.91
2023-03-04T10:33:53.574Z,8.00
2023-03-04T10:34:53.452Z,8.15
2023-03-04T10:35:53.445Z,8.26
2023-03-04T10:36:53.376Z,8.34
2023-03-04T10:37:53.336Z,8.34
2023-03-04T10:38:53.298Z,8.27
2023-03-04T10:39:53.326Z,8.31
2023-03-04T10:40:53.252Z,8.31
2023-03-04T10:41:53.271Z,8.20
2023-03-04T10:42:53.167Z,8.06
2023-03-04T10:43:53.126Z,8.06
2023-03-04T10:44:53.118Z,8.05
2023-03-04T10:45:53.233Z,8.10
2023-03-04T10:46:53.026Z,7.98
2023-03-04T10:47:52.997Z,8.01
2023-03-04T10:48:52.955Z,7.95
2023-03-04T10:49:52.921Z,7.97
2023-03-04T10:50:52.880Z,8.00
2023-03-04T10:51:52.900Z,8.01
2023-03-04T10:52:52.813Z,8.12
2023-03-04T10:53:52.788Z,8.00
2023-03-04T10:54:52.764Z,8.06
2023-03-04T10:55:52.707Z,8.08
2023-03-04T10:56:52.671Z,8.16
2023-03-04T10:57:52.703Z,8.15
2023-03-04T10:58:52.599Z,8.23
2023-03-04T10:59:52.564Z,8.19
2023-03-04T11:00:52.548Z,8.18
2023-03-04T11:01:52.496Z,8.10
2023-03-04T11:02:52.529Z,8.12
2023-03-04T11:03:52.508Z,8.12
2023-03-04T11:04:52.395Z,8.10
2023-03-04T11:05:52.366Z,8.05
2023-03-04T11:06:52.325Z,7.97
2023-03-04T11:07:57.308Z,8.03
2023-03-04T11:08:52.309Z,8.06
2023-03-04T11:09:52.230Z,8.05
2023-03-04T11:10:52.232Z,7.93
2023-03-04T11:11:52.155Z,7.83
2023-03-04T11:12:52.128Z,7.82
2023-03-04T11:13:52.079Z,7.93
2023-03-04T11:14:52.107Z,7.97
2023-03-04T11:15:52.005Z,7.94
2023-03-04T11:16:52.035Z,7.98
2023-03-04T11:17:51.944Z,7.87
2023-03-04T11:18:51.930Z,7.97
2023-03-04T11:19:51.881Z,7.94
2023-03-04T11:20:51.911Z,7.98
2023-03-04T11:21:51.858Z,8.06
2023-03-04T11:22:51.762Z,8.12
2023-03-04T11:23:52.466Z,8.18
2023-03-04T11:24:51.699Z,8.33
2023-03-04T11:25:51.661Z,8.34
2023-03-04T11:26:51.679Z,8.36
2023-03-04T11:27:51.608Z,8.33
2023-03-04T11:28:51.565Z,8.23
2023-03-04T11:29:51.531Z,8.36
2023-03-04T11:30:51.483Z,8.34
2023-03-04T11:31:51.603Z,8.20
2023-03-04T11:32:51.479Z,8.18
2023-03-04T11:33:51.393Z,8.26
2023-03-04T11:34:51.355Z,8.33
2023-03-04T11:35:51.410Z,8.26
2023-03-04T11:36:51.300Z,8.20
2023-03-04T11:37:51.310Z,8.24
2023-03-04T11:38:51.216Z,8.19
2023-03-04T11:39:51.201Z,8.08
2023-03-04T11:40:51.180Z,8.12
2023-03-04T11:41:51.138Z,8.18
2023-03-04T11:42:51.100Z,8.15
2023-03-04T11:43:51.116Z,8.13
2023-03-04T11:44:51.027Z,8.05
2023-03-04T11:45:51.045Z,8.05
2023-03-04T11:46:50.976Z,8.12
2023-03-04T11:47:50.929Z,7.93
2023-03-04T11:48:50.958Z,7.83
2023-03-04T11:49:50.950Z,8.06
2023-03-04T11:50:50.867Z,8.18
2023-03-04T11:51:50.788Z,8.06
2023-03-04T11:52:50.759Z,8.18
2023-03-04T11:53:50.729Z,8.18
2023-03-04T11:54:50.684Z,8.23
2023-03-04T11:55:50.711Z,8.18
2023-03-04T11:56:50.631Z,8.19
2023-03-04T11:57:50.589Z,8.16
2023-03-04T11:58:50.546Z,8.20
2023-03-04T11:59:50.536Z,8.37
2023-03-04T12:00:50.472Z,8.30
2023-03-04T12:01:50.544Z,8.46
2023-03-04T12:02:50.413Z,8.63
2023-03-04T12:03:50.476Z,8.79
2023-03-04T12:04:50.346Z,8.85
2023-03-04T12:05:50.299Z,8.99
2023-03-04T12:06:50.257Z,8.82
2023-03-04T12:07:52.997Z,8.69
2023-03-04T12:08:50.202Z,8.66
2023-03-04T12:09:50.189Z,8.91
2023-03-04T12:10:50.168Z,8.71
2023-03-04T12:11:50.102Z,8.66
2023-03-04T12:12:50.061Z,8.61
2023-03-04T12:13:50.121Z,8.66
2023-03-04T12:14:49.996Z,8.71
2023-03-04T12:15:50.033Z,8.81
2023-03-04T12:16:49.922Z,8.69
2023-03-04T12:17:49.922Z,8.76
2023-03-04T12:18:49.877Z,8.69
2023-03-04T12:19:49.874Z,8.30
2023-03-04T12:20:49.807Z,8.31
2023-03-04T12:21:49.753Z,8.42
2023-03-04T12:22:49.713Z,8.41
2023-03-04T12:23:49.696Z,8.37
2023-03-04T12:24:49.659Z,8.41
2023-03-04T12:25:49.727Z,8.45
2023-03-04T12:26:50.515Z,8.31
2023-03-04T12:27:49.548Z,8.46
2023-03-04T12:28:49.524Z,8.53
2023-03-04T12:29:49.490Z,8.56
2023-03-04T12:30:49.548Z,8.60
2023-03-04T12:31:49.407Z,8.69
2023-03-04T12:32:49.478Z,8.61
2023-03-04T12:33:49.393Z,8.41
2023-03-04T12:34:49.325Z,8.33
2023-03-04T12:35:49.376Z,8.38
2023-03-04T12:36:49.311Z,8.49
2023-03-04T12:37:56.502Z,8.58
2023-03-04T12:38:49.179Z,8.56
2023-03-04T12:39:49.134Z,8.63
2023-03-04T12:40:49.102Z,8.76
2023-03-04T12:41:49.057Z,8.73
2023-03-04T12:42:49.098Z,8.73
2023-03-04T12:43:48.994Z,8.76
2023-03-04T12:44:48.972Z,8.61
2023-03-04T12:45:48.923Z,8.49
2023-03-04T12:46:48.926Z,8.42
2023-03-04T12:47:48.874Z,8.34
2023-03-04T12:48:48.878Z,8.33
2023-03-04T12:49:48.788Z,8.30
2023-03-04T12:50:48.757Z,8.33
2023-03-04T12:51:48.719Z,8.42
2023-03-04T12:52:48.715Z,8.45
2023-03-04T12:53:48.663Z,8.36
2023-03-04T12:54:48.668Z,8.33
2023-03-04T12:55:48.638Z,8.48
2023-03-04T12:56:48.553Z,8.33
2023-03-04T12:57:48.522Z,8.27
2023-03-04T12:58:48.483Z,8.19
2023-03-04T12:59:48.516Z,8.30
2023-03-04T13:00:48.445Z,8.26
2023-03-04T13:01:48.387Z,8.42
2023-03-04T13:02:48.424Z,8.46
2023-03-04T13:03:48.353Z,8.51
2023-03-04T13:04:48.269Z,8.49
2023-03-04T13:05:48.308Z,8.69
2023-03-04T13:06:48.216Z,8.67
2023-03-04T13:07:48.179Z,8.58
2023-03-04T13:08:48.146Z,8.61
2023-03-04T13:09:48.113Z,8.46
2023-03-04T13:10:48.159Z,8.42
2023-03-04T13:11:48.117Z,8.61
2023-03-04T13:12:48.005Z,8.69
2023-03-04T13:13:47.961Z,8.88
2023-03-04T13:14:47.935Z,8.84
2023-03-04T13:15:47.930Z,8.97
2023-03-04T13:16:47.866Z,9.00
2023-03-04T13:17:47.888Z,8.91